Time;durP1;ratioP1;P1;durP2;ratioP2;P2;SDS_P1;SDS_P2;PMS_P1;PMS_P2;Temp;Humidity;BMP_temperature;BMP_pressure;BME280_temperature;BME280_humidity;BME280_pressure;Samples;Min_cycle;Max_cycle;Signal;HPM_P1;HPM_P2
2022/07/06 00:00:32;;;;;;;6.20;2.43;;;16.90;99.90;;;;;;5008721;28;20218;-74
2022/07/06 00:02:58;;;;;;;1.47;1.27;;;16.90;99.90;;;;;;5008740;28;20185;-74
2022/07/06 00:05:24;;;;;;;4.83;1.50;;;16.90;99.90;;;;;;5008902;28;20219;-74
2022/07/06 00:07:50;;;;;;;1.93;1.57;;;16.90;99.90;;;;;;5008937;28;20191;-75
2022/07/06 00:10:15;;;;;;;1.30;1.20;;;16.90;99.90;;;;;;5009008;28;20427;-75
2022/07/06 00:12:41;;;;;;;5.00;1.50;;;16.80;99.90;;;;;;5008969;28;20843;-74
2022/07/06 00:15:07;;;;;;;5.90;1.30;;;16.90;99.90;;;;;;5008944;28;20211;-74
2022/07/06 00:17:32;;;;;;;1.83;1.30;;;16.90;99.90;;;;;;5008784;28;20191;-74
2022/07/06 00:19:58;;;;;;;2.17;1.67;;;16.90;99.90;;;;;;4991069;28;20216;-74
2022/07/06 00:22:23;;;;;;;1.77;1.67;;;16.80;99.90;;;;;;5009119;28;20201;-74
2022/07/06 00:24:49;;;;;;;1.77;1.33;;;16.60;99.90;;;;;;5009457;28;20201;-73
2022/07/06 00:27:15;;;;;;;2.40;1.63;;;16.40;99.90;;;;;;4975751;28;20197;-74
2022/07/06 00:29:43;;;;;;;3.27;1.40;;;16.50;99.90;;;;;;4992334;28;20188;-75
2022/07/06 00:32:12;;;;;;;5.63;1.50;;;16.60;99.90;;;;;;4993247;28;20192;-75
2022/07/06 00:34:41;;;;;;;1.70;1.60;;;16.60;99.90;;;;;;4995577;28;20423;-75
2022/07/06 00:37:07;;;;;;;4.50;1.77;;;16.50;99.90;;;;;;4995046;28;20944;-74
2022/07/06 00:39:34;;;;;;;2.37;1.73;;;16.50;99.90;;;;;;5012390;28;20478;-74
2022/07/06 00:42:00;;;;;;;2.33;1.80;;;16.60;99.90;;;;;;5012699;28;20183;-74
2022/07/06 00:44:25;;;;;;;4.10;2.20;;;16.70;99.90;;;;;;5012550;28;20419;-74
2022/07/06 00:46:51;;;;;;;3.60;1.93;;;16.60;99.90;;;;;;5012588;28;20253;-73
2022/07/06 00:52:02;;;;;;;2.80;2.10;;;16.30;99.90;;;;;;5012875;28;20249;-73
2022/07/06 00:54:31;;;;;;;2.03;1.83;;;16.20;99.90;;;;;;5012472;28;20974;-74
2022/07/06 00:56:58;;;;;;;3.77;1.47;;;15.90;99.90;;;;;;4994524;28;20440;-74
2022/07/06 00:59:24;;;;;;;3.83;1.73;;;15.80;99.90;;;;;;5012267;28;20567;-73
2022/07/06 01:01:50;;;;;;;3.53;2.20;;;15.70;99.90;;;;;;5012019;28;20465;-73
2022/07/06 01:04:16;;;;;;;4.20;1.73;;;15.70;99.90;;;;;;5012190;28;20426;-73
2022/07/06 01:06:43;;;;;;;4.40;1.57;;;15.80;99.90;;;;;;4994195;28;20453;-74
2022/07/06 01:09:09;;;;;;;4.80;2.00;;;15.90;99.90;;;;;;5012101;28;20182;-74
2022/07/06 01:11:34;;;;;;;11.30;2.23;;;15.90;99.90;;;;;;5012017;28;21009;-73
2022/07/06 01:14:01;;;;;;;3.97;2.20;;;16.00;99.90;;;;;;5012038;28;21354;-75
2022/07/06 01:16:26;;;;;;;2.40;2.13;;;15.90;99.90;;;;;;4994237;28;20213;-73
2022/07/06 01:18:52;;;;;;;5.23;2.60;;;15.90;99.90;;;;;;5011710;28;20426;-73
2022/07/06 01:21:18;;;;;;;2.67;1.90;;;15.80;99.90;;;;;;5011599;28;20693;-73
2022/07/06 01:23:45;;;;;;;4.50;2.43;;;15.60;99.90;;;;;;5011523;28;20190;-73
2022/07/06 01:26:14;;;;;;;11.13;2.30;;;15.60;99.90;;;;;;5011317;28;20203;-74
2022/07/06 01:28:40;;;;;;;7.60;2.73;;;15.60;99.90;;;;;;5011488;28;20459;-75
2022/07/06 01:31:15;;;;;;;5.37;2.23;;;15.60;99.90;;;;;;5011367;28;20816;-74
2022/07/06 01:33:40;;;;;;;4.50;2.47;;;15.50;99.90;;;;;;4993866;28;20902;-73
2022/07/06 01:36:06;;;;;;;4.20;2.30;;;15.30;99.90;;;;;;5011136;28;20461;-73
2022/07/06 01:38:32;;;;;;;4.60;2.43;;;15.30;99.90;;;;;;5010857;28;20194;-74
2022/07/06 01:40:57;;;;;;;2.50;2.30;;;15.30;99.90;;;;;;4993904;28;20621;-73
2022/07/06 01:43:23;;;;;;;3.00;2.13;;;15.30;99.90;;;;;;5010705;28;20246;-73
2022/07/06 01:45:48;;;;;;;2.97;2.40;;;15.10;99.90;;;;;;5011473;28;20210;-73
2022/07/06 01:48:14;;;;;;;6.73;2.37;;;15.00;99.90;;;;;;4993926;28;20275;-73
2022/07/06 01:50:40;;;;;;;6.30;2.40;;;15.00;99.90;;;;;;4977778;28;20720;-73
2022/07/06 01:53:05;;;;;;;3.90;2.67;;;15.10;99.90;;;;;;4993955;28;20201;-74
2022/07/06 01:55:31;;;;;;;9.03;3.03;;;15.20;99.90;;;;;;4993836;28;20278;-73
2022/07/06 01:57:57;;;;;;;5.37;2.60;;;15.30;99.90;;;;;;4994130;28;20190;-73
2022/07/06 02:00:22;;;;;;;3.80;2.03;;;15.50;99.90;;;;;;4993794;28;20210;-73
2022/07/06 02:02:48;;;;;;;3.20;2.10;;;15.50;99.90;;;;;;5011349;28;20664;-73
2022/07/06 02:05:13;;;;;;;2.50;2.30;;;15.50;99.90;;;;;;5011187;28;20206;-74
2022/07/06 02:07:39;;;;;;;3.60;2.17;;;15.50;99.90;;;;;;5010969;28;20226;-73
2022/07/06 02:10:05;;;;;;;3.50;2.30;;;15.40;99.90;;;;;;5011504;28;20560;-74
2022/07/06 02:12:31;;;;;;;6.50;2.60;;;15.30;99.90;;;;;;4994013;28;20722;-75
2022/07/06 02:14:56;;;;;;;3.43;2.43;;;15.30;99.90;;;;;;4993810;28;20202;-74
2022/07/06 02:17:22;;;;;;;3.83;2.57;;;15.30;99.90;;;;;;5011387;28;20195;-74
2022/07/06 02:19:47;;;;;;;2.27;2.07;;;15.30;99.90;;;;;;5035708;28;20188;-74
2022/07/06 02:22:13;;;;;;;6.33;2.97;;;15.20;99.90;;;;;;5036146;28;20342;-75
2022/07/06 02:24:38;;;;;;;5.30;2.57;;;15.10;99.90;;;;;;5036501;28;20193;-75
2022/07/06 02:27:04;;;;;;;2.90;2.43;;;15.20;99.90;;;;;;5032182;28;20653;-74
2022/07/06 02:29:30;;;;;;;2.40;2.20;;;15.10;99.90;;;;;;5011720;28;20190;-74
2022/07/06 02:31:55;;;;;;;4.23;2.40;;;15.20;99.90;;;;;;5011765;28;20222;-75
2022/07/06 02:34:21;;;;;;;9.40;2.80;;;15.20;99.90;;;;;;5011029;28;20186;-75
2022/07/06 02:36:46;;;;;;;2.87;2.57;;;15.10;99.90;;;;;;4993319;28;20210;-75
2022/07/06 02:39:12;;;;;;;2.80;2.30;;;15.00;99.90;;;;;;4993172;28;20209;-75
2022/07/06 02:41:38;;;;;;;3.83;2.63;;;15.00;99.90;;;;;;5011999;28;20214;-75
2022/07/06 02:44:03;;;;;;;7.13;2.67;;;14.90;99.90;;;;;;5010947;28;20220;-75
2022/07/06 02:46:29;;;;;;;5.63;2.83;;;14.90;99.90;;;;;;5010397;28;20538;-75
2022/07/06 02:48:55;;;;;;;10.60;4.00;;;14.60;99.90;;;;;;5010265;28;20189;-75
2022/07/06 02:51:20;;;;;;;3.77;2.93;;;14.70;99.90;;;;;;5010515;28;20205;-74
2022/07/06 02:53:46;;;;;;;4.57;2.43;;;14.70;99.90;;;;;;5011641;28;20216;-75
2022/07/06 02:56:12;;;;;;;5.40;2.53;;;14.50;99.90;;;;;;5011180;28;20214;-77
2022/07/06 02:58:38;;;;;;;8.47;2.63;;;14.50;99.90;;;;;;4993443;28;21135;-76
2022/07/06 03:01:03;;;;;;;6.23;2.67;;;14.60;99.90;;;;;;4992515;28;20205;-76
2022/07/06 03:03:29;;;;;;;8.00;2.60;;;14.60;99.90;;;;;;5010051;28;20596;-77
2022/07/06 03:05:54;;;;;;;4.80;2.70;;;14.70;99.90;;;;;;4992514;28;20206;-76
2022/07/06 03:08:20;;;;;;;2.60;2.40;;;14.60;99.90;;;;;;5010152;28;20189;-76
2022/07/06 03:10:46;;;;;;;3.77;2.73;;;14.70;99.90;;;;;;4992195;28;20705;-77
2022/07/06 03:13:11;;;;;;;3.20;2.67;;;14.80;99.90;;;;;;4992327;28;20190;-76
2022/07/06 03:15:37;;;;;;;5.47;2.67;;;14.80;99.90;;;;;;5009790;28;20208;-76
2022/07/06 03:18:03;;;;;;;6.33;3.30;;;14.80;99.90;;;;;;4991915;28;20196;-76
2022/07/06 03:20:28;;;;;;;5.10;2.47;;;14.80;99.90;;;;;;5009431;28;20224;-76
2022/07/06 03:22:54;;;;;;;3.63;3.33;;;14.60;99.90;;;;;;4991970;28;20179;-76
2022/07/06 03:25:20;;;;;;;4.23;2.63;;;14.60;99.90;;;;;;4991974;28;20211;-76
2022/07/06 03:27:45;;;;;;;3.87;3.10;;;14.60;99.90;;;;;;4991748;28;20201;-75
2022/07/06 03:30:11;;;;;;;3.67;3.37;;;14.60;99.90;;;;;;5009435;28;20196;-76
2022/07/06 03:32:37;;;;;;;9.50;3.00;;;14.50;99.90;;;;;;4991967;28;20196;-76
2022/07/06 03:35:03;;;;;;;3.80;3.00;;;14.50;99.90;;;;;;5009480;28;20445;-76
2022/07/06 03:37:28;;;;;;;5.93;3.27;;;14.50;99.90;;;;;;4991703;28;20293;-76
2022/07/06 03:39:54;;;;;;;10.10;3.13;;;14.50;99.90;;;;;;4975382;28;20452;-77
2022/07/06 03:42:19;;;;;;;5.07;3.00;;;14.50;99.90;;;;;;5009010;28;20189;-75
2022/07/06 03:44:45;;;;;;;3.03;2.77;;;14.40;99.90;;;;;;5008904;28;20284;-75
2022/07/06 03:47:11;;;;;;;5.10;3.00;;;14.60;99.90;;;;;;4991397;28;20185;-75
2022/07/06 03:49:36;;;;;;;2.90;2.70;;;14.50;99.90;;;;;;4991309;28;20277;-76
2022/07/06 03:52:02;;;;;;;4.60;3.20;;;14.40;99.90;;;;;;4991245;28;20217;-76
2022/07/06 03:54:28;;;;;;;3.63;3.03;;;14.40;99.90;;;;;;5008986;28;20562;-77
2022/07/06 03:56:53;;;;;;;6.83;3.23;;;14.30;99.90;;;;;;5008943;28;20502;-75
2022/07/06 03:59:19;;;;;;;3.30;2.87;;;14.30;99.90;;;;;;4991639;28;20185;-75
2022/07/06 04:01:45;;;;;;;4.00;2.83;;;14.30;99.90;;;;;;5008532;28;20892;-75
2022/07/06 04:04:10;;;;;;;3.30;2.40;;;14.30;99.90;;;;;;5007509;28;20259;-75
2022/07/06 04:06:36;;;;;;;5.07;2.73;;;14.30;99.90;;;;;;5008067;28;20209;-75
2022/07/06 04:09:02;;;;;;;2.80;2.60;;;14.30;99.90;;;;;;5011296;28;20185;-75
2022/07/06 04:11:27;;;;;;;4.67;3.03;;;14.40;99.90;;;;;;5011079;28;20185;-75
2022/07/06 04:13:54;;;;;;;5.63;2.50;;;14.40;99.90;;;;;;4993572;28;20714;-75
2022/07/06 04:16:20;;;;;;;3.90;3.07;;;14.60;99.90;;;;;;5011253;28;20655;-75
2022/07/06 04:18:46;;;;;;;4.27;3.00;;;14.70;99.90;;;;;;4993661;28;20417;-75
2022/07/06 04:21:11;;;;;;;6.20;3.53;;;14.90;99.90;;;;;;4993895;28;20476;-75
2022/07/06 04:23:37;;;;;;;7.30;2.93;;;15.00;99.90;;;;;;5011146;28;20173;-75
2022/07/06 04:26:03;;;;;;;8.97;2.93;;;15.00;99.90;;;;;;5011030;28;20198;-75
2022/07/06 04:28:28;;;;;;;2.83;2.60;;;15.00;99.90;;;;;;4976867;28;20678;-75
2022/07/06 04:30:54;;;;;;;2.70;2.40;;;15.00;99.90;;;;;;5011117;28;20189;-75
2022/07/06 04:33:20;;;;;;;3.13;2.83;;;15.00;99.90;;;;;;5011027;28;20697;-75
2022/07/06 04:35:45;;;;;;;3.57;2.53;;;15.10;99.90;;;;;;4993403;28;20202;-75
2022/07/06 04:38:11;;;;;;;2.93;2.63;;;15.00;99.90;;;;;;4993260;28;20604;-75
2022/07/06 04:40:37;;;;;;;3.23;2.80;;;15.10;99.90;;;;;;5010368;28;20237;-75
2022/07/06 04:43:03;;;;;;;5.33;2.47;;;15.10;99.90;;;;;;5010379;28;20195;-75
2022/07/06 04:45:28;;;;;;;4.63;2.33;;;15.10;99.90;;;;;;5010210;28;20205;-75
2022/07/06 04:47:54;;;;;;;5.17;2.50;;;15.20;99.90;;;;;;4992400;28;20789;-75
2022/07/06 04:50:20;;;;;;;4.60;2.77;;;15.20;99.90;;;;;;5010237;28;20189;-75
2022/07/06 04:52:46;;;;;;;3.03;2.17;;;15.20;99.90;;;;;;5010410;28;20192;-75
2022/07/06 04:55:13;;;;;;;6.30;2.80;;;15.30;99.90;;;;;;4992400;28;20469;-75
2022/07/06 04:57:39;;;;;;;4.30;2.80;;;15.50;99.90;;;;;;5010277;28;20265;-75
2022/07/06 05:00:05;;;;;;;3.97;2.67;;;15.60;99.90;;;;;;4992337;28;20581;-75
2022/07/06 05:02:31;;;;;;;3.33;2.40;;;15.60;99.90;;;;;;5010316;28;20189;-75
2022/07/06 05:04:57;;;;;;;5.17;3.43;;;15.70;99.90;;;;;;4992444;28;20433;-75
2022/07/06 05:07:22;;;;;;;3.87;2.47;;;15.90;99.90;;;;;;5010164;28;20178;-75
2022/07/06 05:09:48;;;;;;;2.93;2.60;;;16.00;99.90;;;;;;5010271;28;20187;-75
2022/07/06 05:12:14;;;;;;;7.20;3.10;;;16.10;99.90;;;;;;5009973;28;21018;-75
2022/07/06 05:14:39;;;;;;;4.20;2.30;;;16.20;99.90;;;;;;4975957;28;20269;-75
2022/07/06 05:17:05;;;;;;;2.93;2.60;;;16.30;99.90;;;;;;5009887;28;20560;-76
2022/07/06 05:19:30;;;;;;;2.73;2.27;;;16.40;99.90;;;;;;5008617;28;20186;-75
2022/07/06 05:21:56;;;;;;;4.40;2.10;;;16.50;99.90;;;;;;4992260;28;20212;-76
2022/07/06 05:24:22;;;;;;;2.43;2.23;;;16.70;99.90;;;;;;4975958;28;20194;-76
2022/07/06 05:26:47;;;;;;;4.20;2.50;;;16.90;99.90;;;;;;4992015;28;20203;-76
2022/07/06 05:29:13;;;;;;;4.33;2.80;;;17.00;99.90;;;;;;4992264;28;20271;-76
2022/07/06 05:31:39;;;;;;;3.17;2.60;;;17.10;99.90;;;;;;4992316;28;20218;-76
2022/07/06 05:34:04;;;;;;;3.70;2.50;;;17.20;99.90;;;;;;5010173;28;20277;-76
2022/07/06 05:36:30;;;;;;;2.57;2.37;;;17.40;99.90;;;;;;5009982;28;20306;-76
2022/07/06 05:38:55;;;;;;;5.57;2.60;;;17.60;99.90;;;;;;5009613;28;20208;-75
2022/07/06 05:41:21;;;;;;;4.30;2.50;;;17.60;99.90;;;;;;5009531;28;20211;-76
2022/07/06 05:43:47;;;;;;;6.80;3.07;;;17.70;99.90;;;;;;5009762;28;20183;-75
2022/07/06 05:46:12;;;;;;;2.83;2.50;;;17.80;99.90;;;;;;5009641;28;20211;-76
2022/07/06 05:51:22;;;;;;;4.00;2.67;;;17.80;99.90;;;;;;5009658;28;20639;-76
2022/07/06 05:53:48;;;;;;;6.93;2.63;;;18.00;99.90;;;;;;5009258;28;20435;-76
2022/07/06 05:56:13;;;;;;;5.97;2.50;;;18.20;99.90;;;;;;4991688;28;20231;-76
2022/07/06 05:58:39;;;;;;;8.50;2.83;;;18.20;99.90;;;;;;5009709;28;20665;-77
2022/07/06 06:01:07;;;;;;;9.77;2.80;;;18.40;99.90;;;;;;5009385;28;20467;-76
2022/07/06 06:03:33;;;;;;;6.17;2.57;;;18.50;99.90;;;;;;5009375;28;20188;-76
2022/07/06 06:05:59;;;;;;;6.47;2.87;;;18.50;99.90;;;;;;5009529;28;20866;-76
2022/07/06 06:08:24;;;;;;;4.47;2.77;;;18.70;99.90;;;;;;5009070;28;20430;-76
2022/07/06 06:10:51;;;;;;;4.03;2.80;;;18.70;99.90;;;;;;4975323;28;20428;-75
2022/07/06 06:13:16;;;;;;;5.00;2.90;;;18.80;99.90;;;;;;5009362;28;20239;-76
2022/07/06 06:15:42;;;;;;;9.00;2.90;;;18.90;99.90;;;;;;5008904;28;20441;-76
2022/07/06 06:18:08;;;;;;;6.50;3.30;;;18.80;99.90;;;;;;5008850;28;20185;-75
2022/07/06 06:20:33;;;;;;;5.13;2.80;;;18.90;99.90;;;;;;4991356;28;20239;-76
2022/07/06 06:23:00;;;;;;;3.23;2.50;;;19.00;99.90;;;;;;5010112;28;20187;-75
2022/07/06 06:25:34;;;;;;;3.53;2.67;;;19.10;99.90;;;;;;5008747;28;20212;-75
2022/07/06 06:28:01;;;;;;;10.33;3.20;;;19.10;99.90;;;;;;4991422;28;20446;-76
2022/07/06 06:30:27;;;;;;;3.37;3.07;;;19.10;99.90;;;;;;5008366;28;20426;-75
2022/07/06 06:33:14;;;;;;;5.00;3.07;;;19.00;99.90;;;;;;4990656;28;20424;-76
2022/07/06 06:35:50;;;;;;;3.07;2.77;;;19.10;99.90;;;;;;5008545;28;20208;-75
2022/07/06 06:38:17;;;;;;;4.70;2.77;;;19.20;99.90;;;;;;5009088;28;20454;-76
2022/07/06 06:40:43;;;;;;;4.60;3.77;;;19.30;99.90;;;;;;4991234;28;20888;-76
2022/07/06 06:43:09;;;;;;;4.37;2.87;;;19.30;99.90;;;;;;5008960;28;20408;-76
2022/07/06 06:45:35;;;;;;;4.97;2.90;;;19.50;99.90;;;;;;5008976;28;20202;-75
2022/07/06 06:48:01;;;;;;;6.03;3.30;;;19.50;99.90;;;;;;4991223;28;20417;-75
2022/07/06 06:50:27;;;;;;;4.43;2.80;;;19.50;99.90;;;;;;4991295;28;20193;-75
2022/07/06 06:52:53;;;;;;;3.40;3.10;;;19.60;99.90;;;;;;5008671;28;20272;-75
2022/07/06 06:55:18;;;;;;;6.63;3.00;;;19.60;99.90;;;;;;5008608;28;20436;-75
2022/07/06 06:57:44;;;;;;;4.00;3.20;;;19.60;99.90;;;;;;4991141;28;20653;-75
2022/07/06 07:00:11;;;;;;;9.83;2.80;;;19.80;99.90;;;;;;5008629;28;20767;-76
2022/07/06 07:02:37;;;;;;;3.77;2.60;;;19.80;99.90;;;;;;4990795;28;20432;-76
2022/07/06 07:05:03;;;;;;;5.93;3.27;;;19.80;99.90;;;;;;4974073;28;20960;-75
2022/07/06 07:07:29;;;;;;;3.30;3.00;;;19.80;99.90;;;;;;5008246;28;20189;-76
2022/07/06 07:09:54;;;;;;;4.53;3.10;;;19.80;99.90;;;;;;4990184;28;20434;-75
2022/07/06 07:12:20;;;;;;;7.23;3.80;;;19.80;99.90;;;;;;5007997;28;20189;-75
2022/07/06 07:14:47;;;;;;;5.30;3.10;;;19.80;99.90;;;;;;4990343;28;20217;-76
2022/07/06 07:17:13;;;;;;;3.37;3.07;;;19.90;99.90;;;;;;5007953;28;20185;-75
2022/07/06 07:19:39;;;;;;;8.43;3.83;;;19.90;99.90;;;;;;5007733;28;20416;-75
2022/07/06 07:22:05;;;;;;;5.83;3.63;;;19.80;99.90;;;;;;5008193;28;20518;-75
2022/07/06 07:24:31;;;;;;;4.80;3.03;;;19.60;99.90;;;;;;5008074;28;20428;-75
2022/07/06 07:26:57;;;;;;;6.33;3.07;;;19.70;99.90;;;;;;5008456;28;20416;-76
2022/07/06 07:29:22;;;;;;;5.50;3.17;;;19.80;99.90;;;;;;5008235;28;20235;-76
2022/07/06 07:31:48;;;;;;;3.10;2.90;;;19.90;99.90;;;;;;4990906;28;20185;-75
2022/07/06 07:34:14;;;;;;;4.73;2.90;;;20.10;99.90;;;;;;4990824;28;20268;-75
2022/07/06 07:36:39;;;;;;;3.60;2.93;;;20.20;99.90;;;;;;4990341;28;20211;-75
2022/07/06 07:39:05;;;;;;;10.80;3.57;;;20.20;99.90;;;;;;5008035;28;20502;-76
2022/07/06 07:41:31;;;;;;;5.80;3.40;;;20.20;99.90;;;;;;4991015;28;20240;-76
2022/07/06 07:43:57;;;;;;;5.07;2.67;;;20.20;99.90;;;;;;5012352;28;20185;-76
2022/07/06 07:46:22;;;;;;;3.43;3.03;;;20.30;99.90;;;;;;5012192;28;20209;-75
2022/07/06 07:48:48;;;;;;;5.30;2.97;;;20.30;99.90;;;;;;5012257;28;20184;-76
2022/07/06 07:51:14;;;;;;;9.53;3.10;;;20.30;99.90;;;;;;4994507;28;20255;-76
2022/07/06 07:53:39;;;;;;;5.53;3.17;;;20.50;99.90;;;;;;4994507;28;20184;-75
2022/07/06 07:56:05;;;;;;;5.00;3.40;;;20.50;99.90;;;;;;4994527;28;20212;-75
2022/07/06 07:58:31;;;;;;;5.30;3.00;;;20.50;99.90;;;;;;4994597;28;20288;-76
2022/07/06 08:00:57;;;;;;;8.13;3.40;;;20.60;99.90;;;;;;5012281;28;21287;-75
2022/07/06 08:03:23;;;;;;;4.57;2.90;;;20.50;99.90;;;;;;4978125;28;20927;-76
2022/07/06 08:05:48;;;;;;;10.23;3.70;;;20.60;99.90;;;;;;4994306;28;20193;-75
2022/07/06 08:08:15;;;;;;;5.67;3.23;;;20.70;99.90;;;;;;4977727;28;20181;-75
2022/07/06 08:10:41;;;;;;;6.30;3.30;;;20.60;99.90;;;;;;4993818;28;20272;-75
2022/07/06 08:13:10;;;;;;;9.33;3.00;;;20.60;99.90;;;;;;5012054;28;20984;-75
2022/07/06 08:15:36;;;;;;;5.97;2.50;;;20.60;99.90;;;;;;4993896;28;20201;-75
2022/07/06 08:18:02;;;;;;;3.77;3.10;;;20.80;99.90;;;;;;5012321;28;20510;-75
2022/07/06 08:20:28;;;;;;;4.00;3.07;;;21.00;99.90;;;;;;4994940;28;20475;-75
2022/07/06 08:22:53;;;;;;;11.57;3.43;;;20.80;99.90;;;;;;5012842;28;20185;-75
2022/07/06 08:25:19;;;;;;;4.27;2.40;;;20.80;99.90;;;;;;4994563;28;20391;-75
2022/07/06 08:27:45;;;;;;;3.23;2.93;;;20.90;99.90;;;;;;4995405;28;20184;-75
2022/07/06 08:30:11;;;;;;;3.17;2.87;;;21.10;99.90;;;;;;5036975;28;20192;-76
2022/07/06 08:32:39;;;;;;;2.83;2.53;;;21.30;99.90;;;;;;5035393;28;20200;-75
2022/07/06 08:35:05;;;;;;;5.70;2.90;;;21.60;99.90;;;;;;5034848;28;20435;-76
2022/07/06 08:37:31;;;;;;;3.30;2.53;;;21.70;98.90;;;;;;5024017;28;20446;-77
2022/07/06 08:39:56;;;;;;;8.60;3.60;;;21.80;99.50;;;;;;4997897;28;20448;-76
2022/07/06 08:42:29;;;;;;;4.67;2.90;;;21.80;97.50;;;;;;5014995;28;20252;-76
2022/07/06 08:44:58;;;;;;;4.60;2.70;;;21.90;99.90;;;;;;5014801;28;20197;-76
2022/07/06 08:47:26;;;;;;;4.90;2.70;;;22.10;99.60;;;;;;5014299;28;20479;-76
2022/07/06 08:49:52;;;;;;;11.43;3.10;;;22.30;98.60;;;;;;5014531;28;20448;-76
2022/07/06 08:52:18;;;;;;;6.67;2.97;;;22.40;99.90;;;;;;5012838;28;20507;-75
2022/07/06 08:54:44;;;;;;;10.73;3.43;;;22.50;98.20;;;;;;4995395;28;20415;-76
2022/07/06 08:57:09;;;;;;;5.23;2.90;;;22.50;96.40;;;;;;4995822;28;20417;-75
2022/07/06 08:59:35;;;;;;;7.70;3.00;;;22.80;96.30;;;;;;5012151;28;20982;-76
2022/07/06 09:02:03;;;;;;;8.10;2.80;;;22.80;95.50;;;;;;5011260;28;20300;-75
2022/07/06 09:04:32;;;;;;;5.77;3.10;;;23.00;96.50;;;;;;5010835;28;20188;-75
2022/07/06 09:06:57;;;;;;;4.43;2.77;;;23.30;96.50;;;;;;5010969;28;20434;-76
2022/07/06 09:09:24;;;;;;;9.93;2.40;;;23.50;95.90;;;;;;5010821;28;20417;-75
2022/07/06 09:11:50;;;;;;;6.40;3.40;;;23.80;96.00;;;;;;5010852;28;20284;-76
2022/07/06 09:14:16;;;;;;;5.73;2.93;;;23.90;96.20;;;;;;5011161;28;20425;-76
2022/07/06 09:16:42;;;;;;;6.90;2.50;;;24.00;95.40;;;;;;5010930;28;20439;-76
2022/07/06 09:19:11;;;;;;;4.40;3.23;;;24.10;94.70;;;;;;5010952;28;21169;-76
2022/07/06 09:21:37;;;;;;;4.50;2.97;;;24.30;94.80;;;;;;5010634;28;20458;-75
2022/07/06 09:24:07;;;;;;;6.93;3.00;;;24.40;93.60;;;;;;5010644;28;20437;-76
2022/07/06 09:26:33;;;;;;;3.83;2.60;;;24.60;93.30;;;;;;5010240;28;20590;-75
2022/07/06 09:28:59;;;;;;;4.27;2.77;;;24.70;92.90;;;;;;5009650;28;20449;-75
2022/07/06 09:31:25;;;;;;;4.70;3.10;;;24.90;92.10;;;;;;5010116;28;20439;-75
2022/07/06 09:34:12;;;;;;;8.63;3.07;;;25.10;92.50;;;;;;5010208;28;20215;-75
2022/07/06 09:36:46;;;;;;;2.67;2.47;;;25.10;88.80;;;;;;5010081;28;20442;-75
2022/07/06 09:39:21;;;;;;;10.60;2.87;;;25.20;91.00;;;;;;5009738;28;20944;-75
2022/07/06 09:41:51;;;;;;;3.77;2.40;;;25.30;90.10;;;;;;5009671;28;20466;-75
2022/07/06 09:44:22;;;;;;;2.90;2.30;;;25.60;89.90;;;;;;5009632;28;20925;-75
2022/07/06 09:46:48;;;;;;;2.80;2.50;;;25.80;90.50;;;;;;5009620;28;20447;-75
2022/07/06 09:49:20;;;;;;;5.90;3.40;;;26.00;87.80;;;;;;5009573;28;20603;-75
2022/07/06 09:51:49;;;;;;;3.77;2.97;;;26.00;84.70;;;;;;5009497;28;20424;-75
2022/07/06 09:54:16;;;;;;;5.20;2.57;;;26.10;85.40;;;;;;5009410;28;20928;-75
2022/07/06 09:56:44;;;;;;;5.00;2.80;;;26.40;87.50;;;;;;5009343;28;20447;-75
2022/07/06 09:59:15;;;;;;;5.47;2.40;;;26.70;85.20;;;;;;4991659;28;20918;-75
2022/07/06 10:01:42;;;;;;;8.53;2.77;;;26.80;83.50;;;;;;4976841;28;20467;-75
2022/07/06 10:04:09;;;;;;;5.50;2.80;;;26.90;84.00;;;;;;5008991;28;20427;-75
2022/07/06 10:06:35;;;;;;;4.00;2.50;;;26.80;82.70;;;;;;5009100;28;20451;-75
2022/07/06 10:09:04;;;;;;;4.77;2.90;;;26.90;82.80;;;;;;5009367;28;20832;-75
2022/07/06 10:11:37;;;;;;;6.77;2.50;;;26.90;80.80;;;;;;5009562;28;20455;-75
2022/07/06 10:14:05;;;;;;;3.97;2.70;;;26.90;80.30;;;;;;4991503;28;20436;-75
2022/07/06 10:16:31;;;;;;;3.10;2.50;;;27.20;80.80;;;;;;5009030;28;20432;-75
2022/07/06 10:18:58;;;;;;;13.00;2.33;;;27.30;79.10;;;;;;5008696;28;20455;-75
2022/07/06 10:21:24;;;;;;;6.90;2.57;;;27.10;78.60;;;;;;4990602;28;20223;-75
2022/07/06 10:23:51;;;;;;;12.93;2.70;;;27.20;77.90;;;;;;5009327;28;20408;-76
2022/07/06 10:26:21;;;;;;;5.10;2.60;;;27.30;77.30;;;;;;5008848;28;20521;-76
2022/07/06 10:28:47;;;;;;;2.73;2.47;;;27.50;75.80;;;;;;4991005;28;20469;-75
2022/07/06 10:31:17;;;;;;;5.27;2.53;;;27.60;74.80;;;;;;5010185;28;20510;-75
2022/07/06 10:33:44;;;;;;;6.70;2.80;;;27.50;74.60;;;;;;4991193;28;20432;-75
2022/07/06 10:36:10;;;;;;;7.53;2.13;;;27.70;72.00;;;;;;5009070;28;20537;-76
2022/07/06 10:38:36;;;;;;;2.43;2.17;;;27.70;73.00;;;;;;4974952;28;20440;-75
2022/07/06 10:41:09;;;;;;;4.63;2.70;;;28.00;73.60;;;;;;5008387;28;20529;-75
2022/07/06 10:43:43;;;;;;;9.03;2.40;;;27.90;72.30;;;;;;4991476;28;20337;-75
2022/07/06 10:46:11;;;;;;;4.97;2.40;;;27.90;71.90;;;;;;4990781;28;20471;-75
2022/07/06 10:48:47;;;;;;;6.73;2.80;;;27.20;72.90;;;;;;5008275;28;20830;-75
2022/07/06 10:51:25;;;;;;;3.43;1.93;;;26.60;73.10;;;;;;5008165;28;20428;-75
2022/07/06 10:54:01;;;;;;;4.23;2.13;;;26.80;74.60;;;;;;5008651;28;20452;-75
2022/07/06 10:56:37;;;;;;;10.30;2.80;;;27.60;74.30;;;;;;5008132;28;20454;-75
2022/07/06 10:59:12;;;;;;;4.23;2.10;;;28.00;73.10;;;;;;4990637;28;20482;-76
2022/07/06 11:01:38;;;;;;;2.87;2.17;;;28.30;72.50;;;;;;5008544;28;20818;-75
2022/07/06 11:04:06;;;;;;;2.50;2.00;;;28.30;68.60;;;;;;4990568;28;20798;-75
2022/07/06 11:06:34;;;;;;;2.97;2.10;;;28.30;69.10;;;;;;5008340;28;20439;-75
2022/07/06 11:09:03;;;;;;;7.40;3.70;;;28.40;70.30;;;;;;5008274;28;20529;-75
2022/07/06 11:11:31;;;;;;;2.17;2.07;;;28.20;72.80;;;;;;5008351;28;20428;-75
2022/07/06 11:14:20;;;;;;;6.03;2.23;;;27.70;69.70;;;;;;5008295;28;20419;-75
2022/07/06 11:16:49;;;;;;;4.57;2.20;;;27.00;73.40;;;;;;5008174;28;20440;-75
2022/07/06 11:19:20;;;;;;;4.77;2.43;;;26.80;73.80;;;;;;5008161;28;20922;-76
2022/07/06 11:21:52;;;;;;;10.20;3.13;;;27.10;73.30;;;;;;4990884;28;20468;-75
2022/07/06 11:24:20;;;;;;;11.43;2.33;;;26.90;72.80;;;;;;4990144;28;20424;-75
2022/07/06 11:26:48;;;;;;;3.73;2.57;;;27.00;73.50;;;;;;5008026;28;20439;-75
2022/07/06 11:29:17;;;;;;;2.13;2.03;;;27.50;75.00;;;;;;5008272;28;20418;-75
2022/07/06 11:31:44;;;;;;;5.00;2.70;;;27.90;75.20;;;;;;5007704;28;20455;-75
2022/07/06 11:34:13;;;;;;;6.00;2.67;;;28.20;72.00;;;;;;5007551;28;20424;-75
2022/07/06 11:36:40;;;;;;;6.50;2.63;;;28.40;71.80;;;;;;5007757;28;20451;-76
2022/07/06 11:39:07;;;;;;;16.13;3.23;;;28.50;71.40;;;;;;5007389;28;20889;-76
2022/07/06 11:41:33;;;;;;;6.33;2.93;;;28.60;69.30;;;;;;5007499;28;20456;-76
2022/07/06 11:43:59;;;;;;;4.77;2.90;;;28.80;68.90;;;;;;5007660;28;20416;-75
2022/07/06 11:46:33;;;;;;;5.77;2.60;;;28.60;67.50;;;;;;4989134;28;20436;-75
2022/07/06 11:49:07;;;;;;;5.20;2.43;;;28.30;69.50;;;;;;5007623;28;20416;-75
2022/07/06 11:51:38;;;;;;;8.23;3.13;;;28.00;70.70;;;;;;5007908;28;20501;-75
2022/07/06 11:54:21;;;;;;;4.80;2.43;;;28.10;69.40;;;;;;4989785;28;20493;-75
2022/07/06 11:57:00;;;;;;;3.93;2.20;;;28.20;68.60;;;;;;5008258;28;20455;-75
2022/07/06 11:59:34;;;;;;;7.40;2.50;;;27.90;69.80;;;;;;4990003;28;20539;-75
2022/07/06 12:02:00;;;;;;;5.20;2.20;;;28.20;67.50;;;;;;4989394;28;20494;-75
2022/07/06 12:04:26;;;;;;;7.73;2.63;;;28.40;67.80;;;;;;5007274;28;20427;-76
2022/07/06 12:06:52;;;;;;;2.43;2.10;;;28.60;69.30;;;;;;4989645;28;20436;-75
2022/07/06 12:09:19;;;;;;;2.33;2.10;;;27.70;68.90;;;;;;4989845;28;20173;-75
2022/07/06 12:11:46;;;;;;;3.27;2.30;;;27.20;70.90;;;;;;4990254;28;20205;-76
2022/07/06 12:14:20;;;;;;;3.90;1.93;;;27.60;71.60;;;;;;4989350;28;20424;-75
2022/07/06 12:16:47;;;;;;;3.20;1.80;;;28.20;70.40;;;;;;5006780;28;20444;-76
2022/07/06 12:19:13;;;;;;;8.90;2.60;;;28.40;69.90;;;;;;5007262;28;20515;-75
2022/07/06 12:21:44;;;;;;;6.17;2.20;;;28.10;70.80;;;;;;4972734;28;20933;-75
2022/07/06 12:24:16;;;;;;;3.53;2.07;;;27.60;71.40;;;;;;5007085;28;20835;-76
2022/07/06 12:26:42;;;;;;;5.50;2.27;;;27.30;71.30;;;;;;5006913;28;20435;-75
2022/07/06 12:29:10;;;;;;;5.90;2.67;;;27.20;71.70;;;;;;4992191;28;20435;-75
2022/07/06 12:31:56;;;;;;;5.63;2.90;;;26.60;74.00;;;;;;5010682;28;20243;-75
2022/07/06 12:34:34;;;;;;;4.50;2.40;;;26.10;70.90;;;;;;4993430;28;20469;-75
2022/07/06 12:37:09;;;;;;;5.77;2.40;;;26.30;74.30;;;;;;5011571;28;20458;-75
2022/07/06 12:39:46;;;;;;;5.63;2.40;;;26.80;74.20;;;;;;5010569;28;20447;-76
2022/07/06 12:42:15;;;;;;;4.60;2.40;;;27.40;72.00;;;;;;4993028;28;20849;-75
2022/07/06 12:44:46;;;;;;;3.13;2.40;;;27.00;73.80;;;;;;5010293;28;20427;-75
2022/07/06 12:47:12;;;;;;;2.60;2.13;;;26.60;73.10;;;;;;5010642;28;20759;-76
2022/07/06 12:49:39;;;;;;;3.10;2.40;;;26.30;76.40;;;;;;5010509;28;20478;-75